»·PEaware :: N6999J KSBA-KSBP

N6999J :: KSBA-KSBP

FLIGHT INFORMATION

Flight Status: Arrived
Operator: Privately registered:
United States
More flights under this callsign
Pilot: Bryan N. (13862)
Aircraft: PIPER PA-28R-201 ARROW
(P28R)
More flights by this aircraft type
Origin: KSBA Santa Barbara Mun
United States
Destination: KSBP San Luis Co Regl
United States
More flights between these airports :: More routes between these airports
Route: +GVO CADAB
File this flight plan on PilotEdge
Remarks: +CW / Simulating IFR conditions
Altitude:
(Current/Filed)
6,000ft
Speed:
(Current/Filed)
135kts
Departed: 05-Oct-19 01:52 PM
Arrived: 05-Oct-19 02:39 PM
Distance/Time
Traveled:
63nm/0:47
Distance/Time
To Go:
Arrived

Flight Plot

Page will automatically refresh every two minutes.


Map Options




Map Legend


Flown Route
Filed Route
Departure Airport
Arrival Airport
Navaid (VOR, NDB)
Fix

Horizontal Profiles

Position Reports

Time Latitude Longitude Heading Altitude Ground
Speed
05-Oct-19 13:29 34.424495 -119.836026 72 13ft 0kts
05-Oct-19 13:30 34.424495 -119.836026 72 13ft 0kts
05-Oct-19 13:31 34.424496 -119.836022 72 13ft 0kts
05-Oct-19 13:32 34.424497 -119.836018 72 13ft 0kts
05-Oct-19 13:33 34.424498 -119.836014 72 13ft 0kts
05-Oct-19 13:33 34.424499 -119.836012 72 13ft 0kts
05-Oct-19 13:35 34.424499 -119.836009 72 13ft 0kts
05-Oct-19 13:36 34.424500 -119.836006 72 13ft 0kts
05-Oct-19 13:36 34.424501 -119.836003 72 13ft 0kts
05-Oct-19 13:38 34.424502 -119.835999 72 13ft 0kts
05-Oct-19 13:38 34.424503 -119.835996 72 13ft 0kts
05-Oct-19 13:39 34.424537 -119.835926 37 13ft 2kts
05-Oct-19 13:40 34.423580 -119.836090 225 13ft 2kts
05-Oct-19 13:41 34.425126 -119.837088 344 13ft 9kts
05-Oct-19 13:42 34.426854 -119.836330 87 13ft 9kts
05-Oct-19 13:43 34.427199 -119.834698 277 13ft 0kts
05-Oct-19 13:44 34.427199 -119.834701 277 13ft 0kts
05-Oct-19 13:45 34.427200 -119.834705 277 13ft 0kts
05-Oct-19 13:46 34.427201 -119.834713 277 13ft 0kts
05-Oct-19 13:47 34.427201 -119.834719 277 13ft 0kts
05-Oct-19 13:48 34.427202 -119.834723 277 13ft 0kts
05-Oct-19 13:49 34.427202 -119.834726 277 13ft 0kts
05-Oct-19 13:50 34.427893 -119.835575 266 13ft 16kts
05-Oct-19 13:51 34.426723 -119.861802 263 829ft 94kts
05-Oct-19 13:52 34.424245 -119.894110 266 1967ft 100kts
05-Oct-19 13:53 34.425201 -119.928636 273 2817ft 114kts
05-Oct-19 13:54 34.425251 -119.970319 270 3356ft 118kts
05-Oct-19 13:55 34.428199 -120.007976 308 4287ft 115kts
05-Oct-19 13:56 34.454525 -120.029682 327 5080ft 113kts
05-Oct-19 13:57 34.481172 -120.050819 328 5844ft 116kts
05-Oct-19 13:58 34.512069 -120.075411 329 6085ft 142kts
05-Oct-19 13:59 34.547798 -120.101191 335 6121ft 154kts
05-Oct-19 14:00 34.587417 -120.124358 334 6040ft 160kts
05-Oct-19 14:01 34.627264 -120.147779 334 5954ft 160kts
05-Oct-19 14:02 34.666682 -120.171732 334 5916ft 157kts
05-Oct-19 14:03 34.705289 -120.194120 334 5977ft 155kts
05-Oct-19 14:04 34.744427 -120.216823 333 5941ft 155kts
05-Oct-19 14:05 34.783192 -120.239548 332 5956ft 154kts
05-Oct-19 14:06 34.820968 -120.263375 334 6059ft 149kts
05-Oct-19 14:07 34.858947 -120.286141 333 6039ft 155kts
05-Oct-19 14:08 34.897819 -120.309350 336 6011ft 155kts
05-Oct-19 14:09 34.936523 -120.331445 335 5678ft 158kts
05-Oct-19 14:10 34.976280 -120.354182 335 5174ft 158kts
05-Oct-19 14:11 35.015651 -120.376662 338 4627ft 155kts
05-Oct-19 14:12 35.054408 -120.398917 336 4158ft 155kts
05-Oct-19 14:13 35.090599 -120.421090 331 3928ft 136kts
05-Oct-19 14:14 35.120921 -120.444638 309 3733ft 133kts
05-Oct-19 14:15 35.143382 -120.481701 309 3257ft 137kts
05-Oct-19 14:16 35.165182 -120.517731 308 2930ft 115kts
05-Oct-19 14:17 35.183245 -120.547201 309 2354ft 99kts
05-Oct-19 14:18 35.200946 -120.577673 308 1805ft 104kts
05-Oct-19 14:19 35.217802 -120.606978 304 1067ft 108kts
05-Oct-19 14:20 35.234682 -120.636336 306 1266ft 120kts
05-Oct-19 14:21 35.253482 -120.670301 303 2223ft 123kts
05-Oct-19 14:22 35.272108 -120.703037 307 3105ft 113kts
05-Oct-19 14:23 35.291025 -120.735767 305 3749ft 120kts
05-Oct-19 14:24 35.300613 -120.778239 282 4013ft 139kts
05-Oct-19 14:25 35.309614 -120.825741 283 4025ft 144kts
05-Oct-19 14:26 35.318139 -120.873799 281 4069ft 144kts
05-Oct-19 14:27 35.325415 -120.922469 281 4065ft 146kts
05-Oct-19 14:28 35.344755 -120.958460 6 4070ft 142kts
05-Oct-19 14:29 35.378692 -120.933202 31 4046ft 145kts
05-Oct-19 14:30 35.378107 -120.887447 115 3978ft 148kts
05-Oct-19 14:31 35.354823 -120.847367 121 3985ft 135kts
05-Oct-19 14:32 35.334872 -120.812291 123 3238ft 119kts
05-Oct-19 14:33 35.316723 -120.780758 121 2825ft 116kts
05-Oct-19 14:34 35.297784 -120.748569 123 2356ft 113kts
05-Oct-19 14:35 35.280445 -120.716780 121 1568ft 108kts
05-Oct-19 14:36 35.263513 -120.687130 123 995ft 101kts
05-Oct-19 14:37 35.248806 -120.661038 123 509ft 87kts
05-Oct-19 14:38 35.238308 -120.642596 114 215ft 17kts
05-Oct-19 14:39 35.238224 -120.640358 80 215ft 9kts
05-Oct-19 14:40 35.238493 -120.639987 7 215ft 0kts

Navigation Log

Ident Type
Flight plan parsing failed, navigation log unavailable